sensor_id;sensor_type;location;lat;lon;timestamp;P1;durP1;ratioP1;P2;durP2;ratioP2
21032;SDS011;10675;47.976;7.824;2022-08-03T00:01:40;0.30;;;0.30;;
21032;SDS011;10675;47.976;7.824;2022-08-03T00:04:07;0.50;;;0.40;;
21032;SDS011;10675;47.976;7.824;2022-08-03T00:06:34;0.30;;;0.30;;
21032;SDS011;10675;47.976;7.824;2022-08-03T00:09:00;0.40;;;0.40;;
21032;SDS011;10675;47.976;7.824;2022-08-03T00:11:25;0.43;;;0.40;;
21032;SDS011;10675;47.976;7.824;2022-08-03T00:13:51;2.67;;;0.55;;
21032;SDS011;10675;47.976;7.824;2022-08-03T00:16:17;0.30;;;0.30;;
21032;SDS011;10675;47.976;7.824;2022-08-03T00:18:43;0.63;;;0.50;;
21032;SDS011;10675;47.976;7.824;2022-08-03T00:21:08;0.50;;;0.50;;
21032;SDS011;10675;47.976;7.824;2022-08-03T00:23:34;0.30;;;0.30;;
21032;SDS011;10675;47.976;7.824;2022-08-03T00:26:00;0.40;;;0.40;;
21032;SDS011;10675;47.976;7.824;2022-08-03T00:28:25;0.40;;;0.40;;
21032;SDS011;10675;47.976;7.824;2022-08-03T00:30:51;0.47;;;0.47;;
21032;SDS011;10675;47.976;7.824;2022-08-03T00:33:17;0.40;;;0.40;;
21032;SDS011;10675;47.976;7.824;2022-08-03T00:35:43;0.37;;;0.37;;
21032;SDS011;10675;47.976;7.824;2022-08-03T00:38:08;0.20;;;0.20;;
21032;SDS011;10675;47.976;7.824;2022-08-03T00:40:34;0.20;;;0.20;;
21032;SDS011;10675;47.976;7.824;2022-08-03T00:43:00;0.50;;;0.33;;
21032;SDS011;10675;47.976;7.824;2022-08-03T00:45:30;0.30;;;0.30;;
21032;SDS011;10675;47.976;7.824;2022-08-03T00:47:58;0.30;;;0.30;;
21032;SDS011;10675;47.976;7.824;2022-08-03T00:50:25;0.40;;;0.40;;
21032;SDS011;10675;47.976;7.824;2022-08-03T00:52:52;0.40;;;0.40;;
21032;SDS011;10675;47.976;7.824;2022-08-03T00:55:20;0.47;;;0.47;;
21032;SDS011;10675;47.976;7.824;2022-08-03T00:57:46;0.40;;;0.40;;
21032;SDS011;10675;47.976;7.824;2022-08-03T01:00:14;0.43;;;0.30;;
21032;SDS011;10675;47.976;7.824;2022-08-03T01:02:42;0.30;;;0.30;;
21032;SDS011;10675;47.976;7.824;2022-08-03T01:05:08;0.33;;;0.33;;
21032;SDS011;10675;47.976;7.824;2022-08-03T01:10:09;0.20;;;0.20;;
21032;SDS011;10675;47.976;7.824;2022-08-03T01:15:52;0.40;;;0.40;;
21032;SDS011;10675;47.976;7.824;2022-08-03T01:21:01;0.67;;;0.30;;
21032;SDS011;10675;47.976;7.824;2022-08-03T01:32:10;0.40;;;0.40;;
21032;SDS011;10675;47.976;7.824;2022-08-03T01:37:31;0.40;;;0.40;;
21032;SDS011;10675;47.976;7.824;2022-08-03T01:40:00;0.50;;;0.40;;
21032;SDS011;10675;47.976;7.824;2022-08-03T01:42:27;0.30;;;0.30;;
21032;SDS011;10675;47.976;7.824;2022-08-03T01:44:55;0.30;;;0.30;;
21032;SDS011;10675;47.976;7.824;2022-08-03T01:47:23;0.43;;;0.43;;
21032;SDS011;10675;47.976;7.824;2022-08-03T01:49:49;0.47;;;0.40;;
21032;SDS011;10675;47.976;7.824;2022-08-03T01:52:17;0.57;;;0.57;;
21032;SDS011;10675;47.976;7.824;2022-08-03T01:54:45;0.20;;;0.20;;
21032;SDS011;10675;47.976;7.824;2022-08-03T01:57:15;0.43;;;0.43;;
21032;SDS011;10675;47.976;7.824;2022-08-03T01:59:42;0.53;;;0.40;;
21032;SDS011;10675;47.976;7.824;2022-08-03T02:02:11;0.30;;;0.30;;
21032;SDS011;10675;47.976;7.824;2022-08-03T02:04:38;0.30;;;0.30;;
21032;SDS011;10675;47.976;7.824;2022-08-03T02:07:06;0.30;;;0.30;;
21032;SDS011;10675;47.976;7.824;2022-08-03T02:09:33;0.40;;;0.40;;
21032;SDS011;10675;47.976;7.824;2022-08-03T02:12:01;0.30;;;0.30;;
21032;SDS011;10675;47.976;7.824;2022-08-03T02:14:31;0.27;;;0.27;;
21032;SDS011;10675;47.976;7.824;2022-08-03T02:16:58;0.40;;;0.40;;
21032;SDS011;10675;47.976;7.824;2022-08-03T02:19:25;0.40;;;0.40;;
21032;SDS011;10675;47.976;7.824;2022-08-03T02:21:52;0.40;;;0.40;;
21032;SDS011;10675;47.976;7.824;2022-08-03T02:24:18;0.30;;;0.30;;
21032;SDS011;10675;47.976;7.824;2022-08-03T02:26:44;0.40;;;0.40;;
21032;SDS011;10675;47.976;7.824;2022-08-03T02:29:13;0.40;;;0.40;;
21032;SDS011;10675;47.976;7.824;2022-08-03T02:31:42;0.43;;;0.40;;
21032;SDS011;10675;47.976;7.824;2022-08-03T02:34:11;0.30;;;0.30;;
21032;SDS011;10675;47.976;7.824;2022-08-03T02:36:38;0.53;;;0.53;;
21032;SDS011;10675;47.976;7.824;2022-08-03T02:39:06;0.40;;;0.40;;
21032;SDS011;10675;47.976;7.824;2022-08-03T02:41:46;0.47;;;0.47;;
21032;SDS011;10675;47.976;7.824;2022-08-03T02:44:15;0.47;;;0.40;;
21032;SDS011;10675;47.976;7.824;2022-08-03T02:46:45;0.30;;;0.30;;
21032;SDS011;10675;47.976;7.824;2022-08-03T02:49:13;0.30;;;0.30;;
21032;SDS011;10675;47.976;7.824;2022-08-03T02:51:42;0.30;;;0.30;;
21032;SDS011;10675;47.976;7.824;2022-08-03T02:54:09;0.30;;;0.30;;
21032;SDS011;10675;47.976;7.824;2022-08-03T02:56:36;0.40;;;0.40;;
21032;SDS011;10675;47.976;7.824;2022-08-03T02:59:03;0.40;;;0.40;;
21032;SDS011;10675;47.976;7.824;2022-08-03T03:01:30;0.33;;;0.33;;
21032;SDS011;10675;47.976;7.824;2022-08-03T03:03:56;0.70;;;0.70;;
21032;SDS011;10675;47.976;7.824;2022-08-03T03:06:22;0.30;;;0.30;;
21032;SDS011;10675;47.976;7.824;2022-08-03T03:08:50;0.27;;;0.27;;
21032;SDS011;10675;47.976;7.824;2022-08-03T03:11:18;0.30;;;0.30;;
21032;SDS011;10675;47.976;7.824;2022-08-03T03:13:47;0.40;;;0.40;;
21032;SDS011;10675;47.976;7.824;2022-08-03T03:16:13;0.20;;;0.20;;
21032;SDS011;10675;47.976;7.824;2022-08-03T03:18:39;0.43;;;0.43;;
21032;SDS011;10675;47.976;7.824;2022-08-03T03:21:07;0.57;;;0.57;;
21032;SDS011;10675;47.976;7.824;2022-08-03T03:23:34;0.30;;;0.30;;
21032;SDS011;10675;47.976;7.824;2022-08-03T03:26:02;0.57;;;0.47;;
21032;SDS011;10675;47.976;7.824;2022-08-03T03:28:29;0.53;;;0.40;;
21032;SDS011;10675;47.976;7.824;2022-08-03T03:30:55;0.30;;;0.30;;
21032;SDS011;10675;47.976;7.824;2022-08-03T03:33:21;0.80;;;0.80;;
21032;SDS011;10675;47.976;7.824;2022-08-03T03:35:47;0.80;;;0.50;;
21032;SDS011;10675;47.976;7.824;2022-08-03T03:38:14;0.30;;;0.30;;
21032;SDS011;10675;47.976;7.824;2022-08-03T03:40:39;0.30;;;0.30;;
21032;SDS011;10675;47.976;7.824;2022-08-03T03:43:09;0.60;;;0.47;;
21032;SDS011;10675;47.976;7.824;2022-08-03T03:45:36;0.30;;;0.30;;
21032;SDS011;10675;47.976;7.824;2022-08-03T03:48:04;0.30;;;0.30;;
21032;SDS011;10675;47.976;7.824;2022-08-03T03:50:31;0.43;;;0.40;;
21032;SDS011;10675;47.976;7.824;2022-08-03T03:52:57;0.30;;;0.30;;
21032;SDS011;10675;47.976;7.824;2022-08-03T03:55:23;0.37;;;0.37;;
21032;SDS011;10675;47.976;7.824;2022-08-03T03:57:48;0.40;;;0.40;;
21032;SDS011;10675;47.976;7.824;2022-08-03T04:00:14;0.40;;;0.40;;
21032;SDS011;10675;47.976;7.824;2022-08-03T04:02:41;0.30;;;0.30;;
21032;SDS011;10675;47.976;7.824;2022-08-03T04:05:07;0.73;;;0.37;;
21032;SDS011;10675;47.976;7.824;2022-08-03T04:10:46;0.50;;;0.50;;
21032;SDS011;10675;47.976;7.824;2022-08-03T04:13:23;0.40;;;0.40;;
21032;SDS011;10675;47.976;7.824;2022-08-03T04:15:51;0.40;;;0.40;;
21032;SDS011;10675;47.976;7.824;2022-08-03T04:18:18;0.37;;;0.33;;
21032;SDS011;10675;47.976;7.824;2022-08-03T04:20:46;0.60;;;0.60;;
21032;SDS011;10675;47.976;7.824;2022-08-03T04:23:12;0.73;;;0.67;;
21032;SDS011;10675;47.976;7.824;2022-08-03T04:25:40;0.47;;;0.47;;
21032;SDS011;10675;47.976;7.824;2022-08-03T04:28:07;0.30;;;0.30;;
21032;SDS011;10675;47.976;7.824;2022-08-03T04:30:34;0.53;;;0.53;;
21032;SDS011;10675;47.976;7.824;2022-08-03T04:33:02;0.33;;;0.33;;
21032;SDS011;10675;47.976;7.824;2022-08-03T04:35:30;0.33;;;0.30;;
21032;SDS011;10675;47.976;7.824;2022-08-03T04:37:58;0.97;;;0.40;;
21032;SDS011;10675;47.976;7.824;2022-08-03T04:40:32;0.63;;;0.50;;
21032;SDS011;10675;47.976;7.824;2022-08-03T04:42:58;0.30;;;0.30;;
21032;SDS011;10675;47.976;7.824;2022-08-03T04:45:28;0.47;;;0.47;;
21032;SDS011;10675;47.976;7.824;2022-08-03T04:47:55;0.57;;;0.57;;
21032;SDS011;10675;47.976;7.824;2022-08-03T04:50:22;0.23;;;0.23;;
21032;SDS011;10675;47.976;7.824;2022-08-03T04:52:48;0.40;;;0.40;;
21032;SDS011;10675;47.976;7.824;2022-08-03T04:55:26;0.50;;;0.40;;
21032;SDS011;10675;47.976;7.824;2022-08-03T04:57:52;0.40;;;0.40;;
21032;SDS011;10675;47.976;7.824;2022-08-03T05:00:18;0.40;;;0.40;;
21032;SDS011;10675;47.976;7.824;2022-08-03T05:02:44;1.00;;;0.60;;
21032;SDS011;10675;47.976;7.824;2022-08-03T05:05:09;0.40;;;0.40;;
21032;SDS011;10675;47.976;7.824;2022-08-03T05:07:36;0.43;;;0.43;;
21032;SDS011;10675;47.976;7.824;2022-08-03T05:10:03;1.03;;;0.40;;
21032;SDS011;10675;47.976;7.824;2022-08-03T05:12:32;0.37;;;0.37;;
21032;SDS011;10675;47.976;7.824;2022-08-03T05:14:58;0.30;;;0.30;;
21032;SDS011;10675;47.976;7.824;2022-08-03T05:17:24;0.40;;;0.40;;
21032;SDS011;10675;47.976;7.824;2022-08-03T05:19:50;0.93;;;0.50;;
21032;SDS011;10675;47.976;7.824;2022-08-03T05:22:15;0.33;;;0.33;;
21032;SDS011;10675;47.976;7.824;2022-08-03T05:24:41;0.63;;;0.50;;
21032;SDS011;10675;47.976;7.824;2022-08-03T05:27:06;0.73;;;0.30;;
21032;SDS011;10675;47.976;7.824;2022-08-03T05:29:32;0.40;;;0.40;;
21032;SDS011;10675;47.976;7.824;2022-08-03T05:31:57;0.83;;;0.47;;
21032;SDS011;10675;47.976;7.824;2022-08-03T05:34:23;0.63;;;0.63;;
21032;SDS011;10675;47.976;7.824;2022-08-03T05:36:48;0.40;;;0.40;;
21032;SDS011;10675;47.976;7.824;2022-08-03T05:39:14;0.85;;;0.50;;
21032;SDS011;10675;47.976;7.824;2022-08-03T05:41:39;0.50;;;0.50;;
21032;SDS011;10675;47.976;7.824;2022-08-03T05:44:05;0.57;;;0.57;;
21032;SDS011;10675;47.976;7.824;2022-08-03T05:46:30;0.40;;;0.40;;
21032;SDS011;10675;47.976;7.824;2022-08-03T05:48:56;1.08;;;0.70;;
21032;SDS011;10675;47.976;7.824;2022-08-03T05:51:22;1.13;;;0.50;;
21032;SDS011;10675;47.976;7.824;2022-08-03T05:53:47;0.40;;;0.40;;
21032;SDS011;10675;47.976;7.824;2022-08-03T05:56:13;0.50;;;0.50;;
21032;SDS011;10675;47.976;7.824;2022-08-03T05:58:39;0.95;;;0.80;;
21032;SDS011;10675;47.976;7.824;2022-08-03T06:01:04;0.50;;;0.50;;
21032;SDS011;10675;47.976;7.824;2022-08-03T06:03:30;0.63;;;0.55;;
21032;SDS011;10675;47.976;7.824;2022-08-03T06:05:55;0.50;;;0.50;;
21032;SDS011;10675;47.976;7.824;2022-08-03T06:08:21;0.65;;;0.30;;
21032;SDS011;10675;47.976;7.824;2022-08-03T06:10:48;0.68;;;0.68;;
21032;SDS011;10675;47.976;7.824;2022-08-03T06:13:14;0.60;;;0.60;;
21032;SDS011;10675;47.976;7.824;2022-08-03T06:15:39;0.57;;;0.57;;
21032;SDS011;10675;47.976;7.824;2022-08-03T06:18:05;0.45;;;0.45;;
21032;SDS011;10675;47.976;7.824;2022-08-03T06:20:32;0.50;;;0.50;;
21032;SDS011;10675;47.976;7.824;2022-08-03T06:22:57;0.70;;;0.70;;
21032;SDS011;10675;47.976;7.824;2022-08-03T06:25:24;0.70;;;0.70;;
21032;SDS011;10675;47.976;7.824;2022-08-03T06:27:50;0.95;;;0.47;;
21032;SDS011;10675;47.976;7.824;2022-08-03T06:30:15;0.35;;;0.35;;
21032;SDS011;10675;47.976;7.824;2022-08-03T06:32:42;0.80;;;0.70;;
21032;SDS011;10675;47.976;7.824;2022-08-03T06:35:09;0.50;;;0.50;;
21032;SDS011;10675;47.976;7.824;2022-08-03T06:37:41;0.60;;;0.60;;
21032;SDS011;10675;47.976;7.824;2022-08-03T06:40:12;0.40;;;0.40;;
21032;SDS011;10675;47.976;7.824;2022-08-03T06:42:39;0.90;;;0.90;;
21032;SDS011;10675;47.976;7.824;2022-08-03T06:45:06;0.45;;;0.45;;
21032;SDS011;10675;47.976;7.824;2022-08-03T06:47:33;0.60;;;0.60;;
21032;SDS011;10675;47.976;7.824;2022-08-03T06:49:59;0.93;;;0.93;;
21032;SDS011;10675;47.976;7.824;2022-08-03T06:52:25;0.57;;;0.57;;
21032;SDS011;10675;47.976;7.824;2022-08-03T06:54:50;0.95;;;0.88;;
21032;SDS011;10675;47.976;7.824;2022-08-03T06:57:16;0.90;;;0.90;;
21032;SDS011;10675;47.976;7.824;2022-08-03T06:59:42;0.55;;;0.55;;
21032;SDS011;10675;47.976;7.824;2022-08-03T07:02:08;1.08;;;0.60;;
21032;SDS011;10675;47.976;7.824;2022-08-03T07:04:34;0.68;;;0.68;;
21032;SDS011;10675;47.976;7.824;2022-08-03T07:07:00;0.93;;;0.80;;
21032;SDS011;10675;47.976;7.824;2022-08-03T07:09:25;0.75;;;0.75;;
21032;SDS011;10675;47.976;7.824;2022-08-03T07:11:52;0.77;;;0.77;;
21032;SDS011;10675;47.976;7.824;2022-08-03T07:14:18;0.60;;;0.60;;
21032;SDS011;10675;47.976;7.824;2022-08-03T07:16:43;0.47;;;0.47;;
21032;SDS011;10675;47.976;7.824;2022-08-03T07:19:09;1.80;;;0.65;;
21032;SDS011;10675;47.976;7.824;2022-08-03T07:21:35;0.80;;;0.80;;
21032;SDS011;10675;47.976;7.824;2022-08-03T07:24:00;0.40;;;0.40;;
21032;SDS011;10675;47.976;7.824;2022-08-03T07:26:26;0.75;;;0.75;;
21032;SDS011;10675;47.976;7.824;2022-08-03T07:28:51;0.50;;;0.40;;
21032;SDS011;10675;47.976;7.824;2022-08-03T07:31:17;0.63;;;0.50;;
21032;SDS011;10675;47.976;7.824;2022-08-03T07:33:42;0.70;;;0.70;;
21032;SDS011;10675;47.976;7.824;2022-08-03T07:36:08;0.65;;;0.65;;
21032;SDS011;10675;47.976;7.824;2022-08-03T07:38:34;0.73;;;0.73;;
21032;SDS011;10675;47.976;7.824;2022-08-03T07:41:00;2.67;;;0.70;;
21032;SDS011;10675;47.976;7.824;2022-08-03T07:43:26;0.60;;;0.60;;
21032;SDS011;10675;47.976;7.824;2022-08-03T07:45:52;1.00;;;0.90;;
21032;SDS011;10675;47.976;7.824;2022-08-03T07:48:17;0.73;;;0.73;;
21032;SDS011;10675;47.976;7.824;2022-08-03T07:50:43;0.95;;;0.80;;
21032;SDS011;10675;47.976;7.824;2022-08-03T07:53:09;1.00;;;0.88;;
21032;SDS011;10675;47.976;7.824;2022-08-03T07:55:34;1.10;;;0.70;;
21032;SDS011;10675;47.976;7.824;2022-08-03T07:58:07;0.70;;;0.70;;
21032;SDS011;10675;47.976;7.824;2022-08-03T08:00:36;0.90;;;0.52;;
21032;SDS011;10675;47.976;7.824;2022-08-03T08:03:03;0.52;;;0.52;;
21032;SDS011;10675;47.976;7.824;2022-08-03T08:05:29;0.88;;;0.80;;
21032;SDS011;10675;47.976;7.824;2022-08-03T08:07:55;1.00;;;0.70;;
21032;SDS011;10675;47.976;7.824;2022-08-03T08:10:21;0.50;;;0.50;;
21032;SDS011;10675;47.976;7.824;2022-08-03T08:12:47;0.65;;;0.65;;
21032;SDS011;10675;47.976;7.824;2022-08-03T08:15:12;0.93;;;0.85;;
21032;SDS011;10675;47.976;7.824;2022-08-03T08:17:42;0.70;;;0.70;;
21032;SDS011;10675;47.976;7.824;2022-08-03T08:20:16;1.10;;;0.50;;
21032;SDS011;10675;47.976;7.824;2022-08-03T08:22:44;1.38;;;0.85;;
21032;SDS011;10675;47.976;7.824;2022-08-03T08:25:09;0.60;;;0.60;;
21032;SDS011;10675;47.976;7.824;2022-08-03T08:27:42;0.63;;;0.63;;
21032;SDS011;10675;47.976;7.824;2022-08-03T08:30:09;0.88;;;0.60;;
21032;SDS011;10675;47.976;7.824;2022-08-03T08:32:35;0.80;;;0.80;;
21032;SDS011;10675;47.976;7.824;2022-08-03T08:35:01;0.65;;;0.65;;
21032;SDS011;10675;47.976;7.824;2022-08-03T08:37:31;0.75;;;0.75;;
21032;SDS011;10675;47.976;7.824;2022-08-03T08:39:56;1.60;;;1.00;;
21032;SDS011;10675;47.976;7.824;2022-08-03T08:42:23;0.52;;;0.52;;
21032;SDS011;10675;47.976;7.824;2022-08-03T08:44:49;1.20;;;1.00;;
21032;SDS011;10675;47.976;7.824;2022-08-03T08:47:15;0.70;;;0.70;;
21032;SDS011;10675;47.976;7.824;2022-08-03T08:49:48;0.70;;;0.70;;
21032;SDS011;10675;47.976;7.824;2022-08-03T08:52:18;0.98;;;0.80;;
21032;SDS011;10675;47.976;7.824;2022-08-03T08:54:49;0.73;;;0.73;;
21032;SDS011;10675;47.976;7.824;2022-08-03T08:57:19;0.80;;;0.80;;
21032;SDS011;10675;47.976;7.824;2022-08-03T08:59:49;1.00;;;0.90;;
21032;SDS011;10675;47.976;7.824;2022-08-03T09:02:16;0.85;;;0.70;;
21032;SDS011;10675;47.976;7.824;2022-08-03T09:04:41;0.82;;;0.80;;
21032;SDS011;10675;47.976;7.824;2022-08-03T09:07:09;0.88;;;0.80;;
21032;SDS011;10675;47.976;7.824;2022-08-03T09:09:35;0.85;;;0.85;;
21032;SDS011;10675;47.976;7.824;2022-08-03T09:12:00;1.30;;;0.77;;
21032;SDS011;10675;47.976;7.824;2022-08-03T09:14:26;0.70;;;0.70;;
21032;SDS011;10675;47.976;7.824;2022-08-03T09:16:57;0.63;;;0.63;;
21032;SDS011;10675;47.976;7.824;2022-08-03T09:19:25;1.10;;;1.00;;
21032;SDS011;10675;47.976;7.824;2022-08-03T09:22:06;0.90;;;0.85;;
21032;SDS011;10675;47.976;7.824;2022-08-03T09:24:58;1.90;;;0.90;;
21032;SDS011;10675;47.976;7.824;2022-08-03T09:27:25;0.50;;;0.50;;
21032;SDS011;10675;47.976;7.824;2022-08-03T09:29:52;1.73;;;0.68;;
21032;SDS011;10675;47.976;7.824;2022-08-03T09:32:22;0.52;;;0.52;;
21032;SDS011;10675;47.976;7.824;2022-08-03T09:34:49;0.80;;;0.80;;
21032;SDS011;10675;47.976;7.824;2022-08-03T09:37:17;1.05;;;0.90;;
21032;SDS011;10675;47.976;7.824;2022-08-03T09:39:45;0.73;;;0.73;;
21032;SDS011;10675;47.976;7.824;2022-08-03T09:44:44;0.57;;;0.57;;
21032;SDS011;10675;47.976;7.824;2022-08-03T09:47:11;0.68;;;0.68;;
21032;SDS011;10675;47.976;7.824;2022-08-03T09:49:38;0.65;;;0.60;;
21032;SDS011;10675;47.976;7.824;2022-08-03T09:52:15;0.75;;;0.70;;
21032;SDS011;10675;47.976;7.824;2022-08-03T09:54:43;1.15;;;1.00;;
21032;SDS011;10675;47.976;7.824;2022-08-03T09:57:22;0.63;;;0.63;;
21032;SDS011;10675;47.976;7.824;2022-08-03T09:59:49;0.70;;;0.57;;
21032;SDS011;10675;47.976;7.824;2022-08-03T10:02:22;0.75;;;0.65;;
21032;SDS011;10675;47.976;7.824;2022-08-03T10:04:49;0.80;;;0.80;;
21032;SDS011;10675;47.976;7.824;2022-08-03T10:07:17;0.80;;;0.80;;
21032;SDS011;10675;47.976;7.824;2022-08-03T10:10:00;1.02;;;1.00;;
21032;SDS011;10675;47.976;7.824;2022-08-03T10:12:26;0.90;;;0.90;;
21032;SDS011;10675;47.976;7.824;2022-08-03T10:14:53;1.20;;;0.98;;
21032;SDS011;10675;47.976;7.824;2022-08-03T10:17:22;0.70;;;0.70;;
21032;SDS011;10675;47.976;7.824;2022-08-03T10:19:48;1.13;;;0.73;;
21032;SDS011;10675;47.976;7.824;2022-08-03T10:22:22;0.88;;;0.88;;
21032;SDS011;10675;47.976;7.824;2022-08-03T10:25:01;0.75;;;0.75;;
21032;SDS011;10675;47.976;7.824;2022-08-03T10:27:30;1.55;;;0.77;;
21032;SDS011;10675;47.976;7.824;2022-08-03T10:29:59;2.50;;;0.70;;
21032;SDS011;10675;47.976;7.824;2022-08-03T10:32:30;0.95;;;0.88;;
21032;SDS011;10675;47.976;7.824;2022-08-03T10:35:03;0.65;;;0.65;;
21032;SDS011;10675;47.976;7.824;2022-08-03T10:37:31;0.75;;;0.75;;
21032;SDS011;10675;47.976;7.824;2022-08-03T10:40:01;1.70;;;0.68;;
21032;SDS011;10675;47.976;7.824;2022-08-03T10:42:27;1.45;;;0.82;;
21032;SDS011;10675;47.976;7.824;2022-08-03T10:44:59;0.90;;;0.90;;
21032;SDS011;10675;47.976;7.824;2022-08-03T10:47:31;0.80;;;0.80;;
21032;SDS011;10675;47.976;7.824;2022-08-03T10:49:59;1.13;;;0.93;;
21032;SDS011;10675;47.976;7.824;2022-08-03T10:52:25;0.80;;;0.80;;
21032;SDS011;10675;47.976;7.824;2022-08-03T10:54:51;0.82;;;0.82;;
21032;SDS011;10675;47.976;7.824;2022-08-03T10:57:48;1.35;;;0.88;;
21032;SDS011;10675;47.976;7.824;2022-08-03T11:00:21;0.73;;;0.65;;
21032;SDS011;10675;47.976;7.824;2022-08-03T11:03:03;6.53;;;1.00;;
21032;SDS011;10675;47.976;7.824;2022-08-03T11:05:39;0.88;;;0.88;;
21032;SDS011;10675;47.976;7.824;2022-08-03T11:08:21;0.80;;;0.80;;
21032;SDS011;10675;47.976;7.824;2022-08-03T11:11:46;1.15;;;0.73;;
21032;SDS011;10675;47.976;7.824;2022-08-03T11:14:04;1.05;;;0.90;;
21032;SDS011;10675;47.976;7.824;2022-08-03T11:16:36;0.80;;;0.80;;
21032;SDS011;10675;47.976;7.824;2022-08-03T11:19:04;0.75;;;0.75;;
21032;SDS011;10675;47.976;7.824;2022-08-03T11:27:19;1.52;;;0.85;;
21032;SDS011;10675;47.976;7.824;2022-08-03T11:32:51;1.05;;;0.98;;
21032;SDS011;10675;47.976;7.824;2022-08-03T11:45:58;0.70;;;0.70;;
21032;SDS011;10675;47.976;7.824;2022-08-03T11:48:26;0.93;;;0.80;;
21032;SDS011;10675;47.976;7.824;2022-08-03T11:50:58;0.70;;;0.70;;
21032;SDS011;10675;47.976;7.824;2022-08-03T11:53:24;1.80;;;1.40;;
21032;SDS011;10675;47.976;7.824;2022-08-03T11:55:50;0.98;;;0.70;;
21032;SDS011;10675;47.976;7.824;2022-08-03T11:58:20;0.68;;;0.68;;
21032;SDS011;10675;47.976;7.824;2022-08-03T12:00:47;0.80;;;0.80;;
21032;SDS011;10675;47.976;7.824;2022-08-03T12:03:17;0.90;;;0.90;;
21032;SDS011;10675;47.976;7.824;2022-08-03T12:05:45;0.90;;;0.80;;
21032;SDS011;10675;47.976;7.824;2022-08-03T12:10:52;0.63;;;0.63;;
21032;SDS011;10675;47.976;7.824;2022-08-03T12:13:19;1.08;;;0.90;;
21032;SDS011;10675;47.976;7.824;2022-08-03T12:15:50;0.98;;;0.88;;
21032;SDS011;10675;47.976;7.824;2022-08-03T12:18:17;1.65;;;1.13;;
21032;SDS011;10675;47.976;7.824;2022-08-03T12:20:44;1.05;;;0.70;;
21032;SDS011;10675;47.976;7.824;2022-08-03T12:23:10;1.00;;;0.90;;
21032;SDS011;10675;47.976;7.824;2022-08-03T12:25:37;0.80;;;0.80;;
21032;SDS011;10675;47.976;7.824;2022-08-03T12:30:32;0.80;;;0.80;;
21032;SDS011;10675;47.976;7.824;2022-08-03T12:32:58;0.88;;;0.88;;
21032;SDS011;10675;47.976;7.824;2022-08-03T12:35:23;1.23;;;1.08;;
21032;SDS011;10675;47.976;7.824;2022-08-03T12:37:50;0.90;;;0.90;;
21032;SDS011;10675;47.976;7.824;2022-08-03T12:40:23;1.00;;;1.00;;
21032;SDS011;10675;47.976;7.824;2022-08-03T12:42:50;1.20;;;1.08;;
21032;SDS011;10675;47.976;7.824;2022-08-03T12:45:20;1.30;;;1.20;;
21032;SDS011;10675;47.976;7.824;2022-08-03T12:47:50;3.13;;;1.17;;
21032;SDS011;10675;47.976;7.824;2022-08-03T12:50:33;0.68;;;0.68;;
21032;SDS011;10675;47.976;7.824;2022-08-03T12:53:02;0.80;;;0.80;;
21032;SDS011;10675;47.976;7.824;2022-08-03T12:55:29;1.05;;;0.95;;
21032;SDS011;10675;47.976;7.824;2022-08-03T12:58:02;2.13;;;1.38;;
21032;SDS011;10675;47.976;7.824;2022-08-03T13:00:33;1.00;;;0.90;;
21032;SDS011;10675;47.976;7.824;2022-08-03T13:03:00;2.97;;;1.17;;
21032;SDS011;10675;47.976;7.824;2022-08-03T13:05:44;1.08;;;0.98;;
21032;SDS011;10675;47.976;7.824;2022-08-03T13:10:44;1.60;;;1.38;;
21032;SDS011;10675;47.976;7.824;2022-08-03T13:13:10;1.33;;;0.80;;
21032;SDS011;10675;47.976;7.824;2022-08-03T13:15:36;1.10;;;1.00;;
21032;SDS011;10675;47.976;7.824;2022-08-03T13:18:01;1.00;;;0.75;;
21032;SDS011;10675;47.976;7.824;2022-08-03T13:20:27;0.85;;;0.80;;
21032;SDS011;10675;47.976;7.824;2022-08-03T13:22:52;0.70;;;0.70;;
21032;SDS011;10675;47.976;7.824;2022-08-03T13:25:18;0.90;;;0.90;;
21032;SDS011;10675;47.976;7.824;2022-08-03T13:27:44;3.85;;;0.70;;
21032;SDS011;10675;47.976;7.824;2022-08-03T13:30:10;0.88;;;0.85;;
21032;SDS011;10675;47.976;7.824;2022-08-03T13:32:36;0.70;;;0.70;;
21032;SDS011;10675;47.976;7.824;2022-08-03T13:35:02;0.70;;;0.70;;
21032;SDS011;10675;47.976;7.824;2022-08-03T13:37:29;0.60;;;0.60;;
21032;SDS011;10675;47.976;7.824;2022-08-03T13:39:56;0.60;;;0.60;;
21032;SDS011;10675;47.976;7.824;2022-08-03T13:42:22;0.52;;;0.52;;
21032;SDS011;10675;47.976;7.824;2022-08-03T13:44:48;0.70;;;0.70;;
21032;SDS011;10675;47.976;7.824;2022-08-03T13:47:13;0.75;;;0.75;;
21032;SDS011;10675;47.976;7.824;2022-08-03T13:49:39;0.77;;;0.77;;
21032;SDS011;10675;47.976;7.824;2022-08-03T13:52:04;0.60;;;0.60;;
21032;SDS011;10675;47.976;7.824;2022-08-03T13:54:30;0.57;;;0.57;;
21032;SDS011;10675;47.976;7.824;2022-08-03T13:56:57;0.50;;;0.50;;
21032;SDS011;10675;47.976;7.824;2022-08-03T13:59:24;0.38;;;0.38;;
21032;SDS011;10675;47.976;7.824;2022-08-03T14:01:51;0.43;;;0.43;;
21032;SDS011;10675;47.976;7.824;2022-08-03T14:04:17;0.40;;;0.40;;
21032;SDS011;10675;47.976;7.824;2022-08-03T14:06:43;0.50;;;0.50;;
21032;SDS011;10675;47.976;7.824;2022-08-03T14:09:10;0.40;;;0.40;;
21032;SDS011;10675;47.976;7.824;2022-08-03T14:11:39;0.88;;;0.85;;
21032;SDS011;10675;47.976;7.824;2022-08-03T14:14:05;0.60;;;0.60;;
21032;SDS011;10675;47.976;7.824;2022-08-03T14:16:31;0.45;;;0.45;;
21032;SDS011;10675;47.976;7.824;2022-08-03T14:18:56;0.52;;;0.52;;
21032;SDS011;10675;47.976;7.824;2022-08-03T14:21:22;0.57;;;0.57;;
21032;SDS011;10675;47.976;7.824;2022-08-03T14:23:47;0.50;;;0.50;;
21032;SDS011;10675;47.976;7.824;2022-08-03T14:26:13;0.50;;;0.50;;
21032;SDS011;10675;47.976;7.824;2022-08-03T14:28:39;0.40;;;0.40;;
21032;SDS011;10675;47.976;7.824;2022-08-03T14:31:05;0.32;;;0.32;;
21032;SDS011;10675;47.976;7.824;2022-08-03T14:33:30;0.52;;;0.52;;
21032;SDS011;10675;47.976;7.824;2022-08-03T14:35:56;0.70;;;0.70;;
21032;SDS011;10675;47.976;7.824;2022-08-03T14:38:22;0.50;;;0.50;;
21032;SDS011;10675;47.976;7.824;2022-08-03T14:40:48;0.40;;;0.40;;
21032;SDS011;10675;47.976;7.824;2022-08-03T14:43:14;0.60;;;0.60;;
21032;SDS011;10675;47.976;7.824;2022-08-03T14:45:41;0.70;;;0.50;;
21032;SDS011;10675;47.976;7.824;2022-08-03T14:48:07;0.35;;;0.35;;
21032;SDS011;10675;47.976;7.824;2022-08-03T14:50:33;0.40;;;0.40;;
21032;SDS011;10675;47.976;7.824;2022-08-03T14:52:58;0.45;;;0.45;;
21032;SDS011;10675;47.976;7.824;2022-08-03T14:55:24;0.50;;;0.50;;
21032;SDS011;10675;47.976;7.824;2022-08-03T14:57:49;0.50;;;0.50;;
21032;SDS011;10675;47.976;7.824;2022-08-03T15:00:15;0.88;;;0.50;;
21032;SDS011;10675;47.976;7.824;2022-08-03T15:02:40;0.50;;;0.40;;
21032;SDS011;10675;47.976;7.824;2022-08-03T15:05:06;0.60;;;0.60;;
21032;SDS011;10675;47.976;7.824;2022-08-03T15:07:32;0.40;;;0.40;;
21032;SDS011;10675;47.976;7.824;2022-08-03T15:09:58;0.63;;;0.40;;
21032;SDS011;10675;47.976;7.824;2022-08-03T15:12:24;0.63;;;0.63;;
21032;SDS011;10675;47.976;7.824;2022-08-03T15:14:49;0.60;;;0.60;;
21032;SDS011;10675;47.976;7.824;2022-08-03T15:17:15;0.45;;;0.40;;
21032;SDS011;10675;47.976;7.824;2022-08-03T15:19:42;0.68;;;0.60;;
21032;SDS011;10675;47.976;7.824;2022-08-03T15:22:07;0.28;;;0.28;;
21032;SDS011;10675;47.976;7.824;2022-08-03T15:24:33;0.40;;;0.40;;
21032;SDS011;10675;47.976;7.824;2022-08-03T15:26:58;0.43;;;0.43;;
21032;SDS011;10675;47.976;7.824;2022-08-03T15:29:24;0.30;;;0.30;;
21032;SDS011;10675;47.976;7.824;2022-08-03T15:31:50;0.40;;;0.40;;
21032;SDS011;10675;47.976;7.824;2022-08-03T15:34:15;0.40;;;0.40;;
21032;SDS011;10675;47.976;7.824;2022-08-03T15:36:42;0.30;;;0.30;;
21032;SDS011;10675;47.976;7.824;2022-08-03T15:39:07;0.40;;;0.40;;
21032;SDS011;10675;47.976;7.824;2022-08-03T15:41:33;0.50;;;0.50;;
21032;SDS011;10675;47.976;7.824;2022-08-03T15:44:00;0.40;;;0.40;;